White Swan, WA (98952)

11:37 AM PST on January 30, 2015 (GMT -0800)
Harrah South | Change Station
CLOSE
Current Station
Personal Weather Station
Location: Harrah, WA
Elevation: 827 ft
Nearby Weather Stations

Elev 827 ft 46.40 °N, 120.54 °W | Updated 1 second ago

Overcast
Overcast
39.8 °F
Feels Like 40 °F
N
0.4
Wind Variable Wind from West
Gusts 1.1 mph

Today
High -- | Low -- °F
--% Chance of Precip.
Yesterday
High -- | Low -- °F
Precip. -- in
7:28 AM 5:04 PM
Waxing Gibbous, 84% visible
Pressure 30.47 in
Visibility 10.0 miles
Clouds Few 500 ft
Overcast 1600 ft
Windchill 40 °F
Dew Point 36 °F
Humidity 85%
Rainfall 0.00 in
Snow Depth Not available.
UV out of 12
Pollen 3.60 out of 12
Air Quality Not available.
Flu Activity Not available.
METAR KYKM 301853Z 17003KT 10SM FEW005 OVC016 03/00 A3043 RMK AO2 SLP316 T00330000

More Conditions Fewer Conditions

Pressure 30.47 in
Visibility 10.0 miles
Clouds Few 500 ft
Overcast 1600 ft
Windchill 40 °F
Dew Point 36 °F
Humidity 85%
Rainfall 0.00 in
Snow Depth Not available.
UV out of 12
Pollen 3.60 out of 12
Air Quality Not available.
Flu Activity Not available.
METAR KYKM 301853Z 17003KT 10SM FEW005 OVC016 03/00 A3043 RMK AO2 SLP316 T00330000

More Conditions Fewer Conditions

10-Day Weather Forecast

Almanac

Astronomy

Jan. 30, 2015 Rise Set
Actual Time
Civil Twilight
Nautical Twilight
Astronomical Twilight
Moon
Length of Visible Light
Length of Day
Tomorrow will be .
, % of the Moon is Illuminated

Today's Extremes

State Highs State Lows

Community

WunderPhotos

Upload Photos

1,791,876 photos uploaded!

WunderBlogs® & News

Nearby

Air Quality

  Air Quality AQ Index Pollutant
Not available.

Snow Depth

Station Depth Elevation

Earthquake Activity

City Distance Mag. Time & Date
Minimum magnitude displayed is 2.5.

Coastal Water Temperatures

Place Temperature

Nearby Weather Stations